Time;durP1;ratioP1;P1;durP2;ratioP2;P2;SDS_P1;SDS_P2;PMS_P1;PMS_P2;Temp;Humidity;BMP_temperature;BMP_pressure;BME280_temperature;BME280_humidity;BME280_pressure;Samples;Min_cycle;Max_cycle;Signal;HPM_P1;HPM_P2
2023/10/14 00:01:13;;;;;;;8.10;1.55;;;14.50;99.90;;;;;;5071866;28;20044;-72
2023/10/14 00:03:43;;;;;;;5.22;1.00;;;14.60;99.90;;;;;;5055208;28;20121;-72
2023/10/14 00:06:13;;;;;;;3.80;0.75;;;14.50;99.90;;;;;;5071728;28;20040;-72
2023/10/14 00:08:57;;;;;;;6.25;0.90;;;14.40;99.90;;;;;;5072043;28;20090;-72
2023/10/14 00:11:43;;;;;;;7.60;1.15;;;14.40;99.90;;;;;;5072081;28;20044;-72
2023/10/14 00:14:16;;;;;;;9.23;1.27;;;14.40;99.90;;;;;;5071976;28;20511;-72
2023/10/14 00:16:48;;;;;;;8.65;0.82;;;14.30;99.90;;;;;;5054796;28;20071;-72
2023/10/14 00:19:14;;;;;;;7.63;0.90;;;14.30;99.90;;;;;;5071775;28;20043;-72
2023/10/14 00:21:42;;;;;;;8.73;0.90;;;14.20;99.90;;;;;;5071687;28;20048;-72
2023/10/14 00:24:08;;;;;;;10.07;1.70;;;14.20;99.90;;;;;;5071890;28;20071;-72
2023/10/14 00:26:34;;;;;;;8.93;1.15;;;14.20;99.90;;;;;;5071801;28;20497;-72
2023/10/14 00:31:46;;;;;;;6.15;0.80;;;14.10;99.90;;;;;;5071867;28;20052;-72
2023/10/14 00:34:14;;;;;;;6.85;0.90;;;14.10;99.90;;;;;;5071446;28;20101;-72
2023/10/14 00:36:40;;;;;;;9.40;1.25;;;14.00;99.90;;;;;;5071421;28;20041;-72
2023/10/14 00:39:16;;;;;;;9.88;1.30;;;14.00;99.90;;;;;;5055041;28;20142;-72
2023/10/14 00:41:43;;;;;;;5.25;1.33;;;13.90;99.90;;;;;;5054807;28;20043;-72
2023/10/14 00:44:10;;;;;;;8.82;1.38;;;13.80;99.90;;;;;;5071416;28;20390;-72
2023/10/14 00:46:48;;;;;;;11.23;1.60;;;13.80;99.90;;;;;;5071594;28;20102;-72
2023/10/14 00:49:15;;;;;;;12.43;1.48;;;13.80;99.90;;;;;;5071445;28;20055;-72
2023/10/14 00:51:42;;;;;;;9.05;1.52;;;13.70;99.90;;;;;;5071352;28;20524;-72
2023/10/14 00:54:17;;;;;;;10.90;2.00;;;13.70;99.90;;;;;;5071380;28;20102;-72
2023/10/14 00:56:43;;;;;;;13.10;2.38;;;13.70;99.90;;;;;;5071279;28;20070;-72
2023/10/14 00:59:09;;;;;;;11.73;1.70;;;13.60;99.90;;;;;;5074059;28;20037;-72
2023/10/14 01:04:20;;;;;;;8.90;2.22;;;13.50;99.90;;;;;;5075338;28;20083;-72
2023/10/14 01:12:16;;;;;;;9.90;2.22;;;13.40;99.90;;;;;;5075240;28;20049;-72
2023/10/14 01:14:52;;;;;;;12.00;1.60;;;13.40;99.90;;;;;;5074872;28;20033;-72
2023/10/14 01:17:28;;;;;;;10.40;1.85;;;13.30;99.90;;;;;;5074724;28;20377;-72
2023/10/14 01:19:55;;;;;;;10.55;1.30;;;13.30;99.90;;;;;;5075062;28;20066;-72
2023/10/14 01:22:21;;;;;;;11.18;1.88;;;13.20;99.90;;;;;;5074761;28;20045;-72
2023/10/14 01:24:48;;;;;;;14.32;1.83;;;13.20;99.90;;;;;;5074853;28;20117;-72
2023/10/14 01:27:16;;;;;;;10.82;1.60;;;13.20;99.90;;;;;;5058407;28;20128;-72
2023/10/14 01:29:43;;;;;;;12.13;2.20;;;13.10;99.90;;;;;;5074596;28;20496;-72
2023/10/14 01:35:23;;;;;;;10.77;1.92;;;13.00;99.90;;;;;;5056898;28;20044;-72
2023/10/14 01:37:53;;;;;;;12.43;1.75;;;12.90;99.90;;;;;;5056919;28;20099;-72
2023/10/14 01:43:10;;;;;;;7.97;1.80;;;12.80;99.90;;;;;;5056780;28;20052;-72
2023/10/14 01:45:47;;;;;;;11.25;1.95;;;12.80;99.90;;;;;;5056676;28;20056;-72
2023/10/14 01:48:14;;;;;;;10.00;2.00;;;12.70;99.90;;;;;;5056933;28;20212;-72
2023/10/14 01:50:46;;;;;;;12.95;1.50;;;12.70;99.90;;;;;;5056614;28;20386;-72
2023/10/14 01:53:18;;;;;;;12.60;1.85;;;12.70;99.90;;;;;;5056751;28;20055;-72
2023/10/14 01:55:47;;;;;;;7.90;1.65;;;12.70;99.90;;;;;;5057335;28;20036;-72
2023/10/14 01:58:21;;;;;;;11.60;1.83;;;12.60;99.90;;;;;;5056569;28;20483;-72
2023/10/14 02:00:52;;;;;;;12.70;1.83;;;12.60;99.90;;;;;;5056521;28;20037;-72
2023/10/14 02:03:20;;;;;;;11.07;1.60;;;12.60;99.90;;;;;;5056454;28;20056;-72
2023/10/14 02:05:45;;;;;;;11.18;1.58;;;12.60;99.90;;;;;;5056491;28;20509;-72
2023/10/14 02:08:15;;;;;;;12.60;2.40;;;12.60;99.90;;;;;;5056327;28;20515;-72
2023/10/14 02:10:50;;;;;;;12.30;1.90;;;12.60;99.90;;;;;;5056738;28;20122;-72
2023/10/14 02:13:19;;;;;;;11.80;2.15;;;12.60;99.90;;;;;;5073759;28;20040;-72
2023/10/14 02:15:46;;;;;;;10.90;1.63;;;12.50;99.90;;;;;;5073940;28;20041;-72
2023/10/14 02:18:22;;;;;;;15.63;2.20;;;12.50;99.90;;;;;;5073558;28;20115;-72
2023/10/14 02:21:05;;;;;;;12.13;1.80;;;12.50;99.90;;;;;;5073920;28;20037;-72
2023/10/14 02:23:45;;;;;;;10.53;1.77;;;12.40;99.90;;;;;;5074262;28;20044;-72
2023/10/14 02:26:16;;;;;;;14.30;2.60;;;12.40;99.90;;;;;;5073497;28;20051;-72
2023/10/14 02:28:48;;;;;;;9.93;1.63;;;12.30;99.90;;;;;;5073484;28;20409;-72
2023/10/14 02:31:18;;;;;;;11.43;1.80;;;12.30;99.90;;;;;;5073516;28;20459;-72
2023/10/14 02:33:47;;;;;;;13.20;2.20;;;12.20;99.90;;;;;;5073313;28;20048;-72
2023/10/14 02:36:15;;;;;;;10.35;2.08;;;12.20;99.90;;;;;;5073229;28;20493;-72
2023/10/14 02:38:46;;;;;;;9.95;1.83;;;12.10;99.90;;;;;;5073299;28;20033;-72
2023/10/14 02:41:16;;;;;;;13.52;2.42;;;12.10;99.90;;;;;;5073245;28;20551;-72
2023/10/14 02:43:43;;;;;;;14.40;1.92;;;12.00;99.90;;;;;;5073497;28;20051;-72
2023/10/14 02:46:11;;;;;;;9.65;1.88;;;12.00;99.90;;;;;;5073085;28;20044;-72
2023/10/14 02:48:55;;;;;;;9.07;1.48;;;12.00;99.90;;;;;;5073360;28;20040;-72
2023/10/14 02:51:35;;;;;;;10.00;1.38;;;12.00;99.90;;;;;;5073360;28;20068;-72
2023/10/14 02:54:13;;;;;;;12.70;1.90;;;12.00;99.90;;;;;;5073009;28;20090;-72
2023/10/14 02:59:21;;;;;;;17.85;2.20;;;11.90;99.90;;;;;;5072877;28;20044;-72
2023/10/14 03:04:48;;;;;;;11.52;2.50;;;11.70;99.90;;;;;;5072475;28;20041;-72
2023/10/14 03:07:23;;;;;;;13.30;2.20;;;11.70;99.90;;;;;;5056376;28;20068;-72
2023/10/14 03:09:49;;;;;;;11.57;2.80;;;11.70;99.90;;;;;;5072695;28;20036;-72
2023/10/14 03:12:18;;;;;;;11.90;1.65;;;11.60;99.90;;;;;;5072562;28;20083;-72
2023/10/14 03:14:48;;;;;;;13.38;2.13;;;11.60;99.90;;;;;;5072511;28;20047;-72
2023/10/14 03:17:21;;;;;;;10.93;2.08;;;11.60;99.90;;;;;;5072665;28;20402;-72
2023/10/14 03:19:52;;;;;;;9.65;1.90;;;11.60;99.90;;;;;;5072794;28;20099;-72
2023/10/14 03:22:22;;;;;;;12.32;1.77;;;11.60;99.90;;;;;;5072240;28;20040;-72
2023/10/14 03:24:49;;;;;;;13.20;2.47;;;11.50;99.90;;;;;;5072301;28;20047;-72
2023/10/14 03:27:15;;;;;;;12.55;2.53;;;11.50;99.90;;;;;;5072587;28;20046;-72
2023/10/14 03:29:45;;;;;;;14.68;2.38;;;11.50;99.90;;;;;;5072599;28;20032;-72
2023/10/14 03:32:11;;;;;;;12.80;1.90;;;11.50;99.90;;;;;;5072292;28;20043;-72
2023/10/14 03:34:41;;;;;;;17.45;2.10;;;11.50;99.90;;;;;;5055499;28;20040;-72
2023/10/14 03:37:18;;;;;;;14.32;2.97;;;11.40;99.90;;;;;;5072129;28;20528;-72
2023/10/14 03:39:54;;;;;;;12.38;2.15;;;11.40;99.90;;;;;;5072450;28;20036;-72
2023/10/14 03:42:22;;;;;;;16.02;2.50;;;11.30;99.90;;;;;;5072138;28;20045;-72
2023/10/14 03:44:47;;;;;;;12.63;2.05;;;11.40;99.90;;;;;;5072064;28;20492;-72
2023/10/14 03:47:16;;;;;;;15.32;2.50;;;11.30;99.90;;;;;;5072070;28;20051;-72
2023/10/14 03:49:45;;;;;;;16.05;2.42;;;11.30;99.90;;;;;;5071990;28;20390;-72
2023/10/14 03:52:12;;;;;;;17.17;2.40;;;11.30;99.90;;;;;;5072043;28;20055;-72
2023/10/14 03:54:42;;;;;;;10.93;1.92;;;11.20;99.90;;;;;;5071859;28;20394;-72
2023/10/14 03:57:16;;;;;;;10.75;1.70;;;11.20;99.90;;;;;;5071845;28;20044;-72
2023/10/14 03:59:46;;;;;;;18.08;2.20;;;11.10;99.90;;;;;;5071999;28;20068;-72
2023/10/14 04:02:15;;;;;;;15.73;2.40;;;11.10;99.90;;;;;;5071986;28;20082;-72
2023/10/14 04:04:42;;;;;;;11.65;2.35;;;11.10;99.90;;;;;;5071857;28;20036;-72
2023/10/14 04:09:40;;;;;;;11.65;1.70;;;11.10;99.90;;;;;;5071826;28;20048;-72
2023/10/14 04:12:08;;;;;;;12.00;2.10;;;11.10;99.90;;;;;;5071817;28;20465;-72
2023/10/14 04:14:36;;;;;;;12.23;2.28;;;11.20;99.90;;;;;;5071678;28;20090;-72
2023/10/14 04:17:10;;;;;;;12.65;2.05;;;11.20;99.90;;;;;;5071532;28;20586;-72
2023/10/14 04:19:54;;;;;;;16.20;2.10;;;11.20;99.90;;;;;;5071716;28;20036;-72
2023/10/14 04:22:32;;;;;;;10.07;1.98;;;11.20;99.90;;;;;;5071948;28;20051;-72
2023/10/14 04:25:18;;;;;;;14.02;2.25;;;11.20;99.90;;;;;;5071609;28;20037;-72
2023/10/14 04:35:25;;;;;;;8.80;1.75;;;11.20;99.90;;;;;;5076156;28;20079;-72
2023/10/14 04:37:55;;;;;;;17.17;2.03;;;11.20;99.90;;;;;;5075662;28;20081;-72
2023/10/14 04:43:19;;;;;;;15.13;2.15;;;11.20;99.90;;;;;;5075841;28;20052;-72
2023/10/14 04:45:51;;;;;;;13.43;2.03;;;11.10;99.90;;;;;;5075710;28;20048;-72
2023/10/14 04:48:17;;;;;;;13.07;2.03;;;11.10;99.90;;;;;;5075454;28;20497;-72
2023/10/14 04:50:44;;;;;;;19.10;3.08;;;11.10;99.90;;;;;;5075617;28;20041;-72
2023/10/14 04:53:13;;;;;;;12.75;1.98;;;11.10;99.90;;;;;;5075229;28;20120;-72
2023/10/14 04:55:44;;;;;;;15.60;2.67;;;11.10;99.90;;;;;;5075167;28;20485;-72
2023/10/14 05:00:43;;;;;;;16.30;2.30;;;11.00;99.90;;;;;;5075200;28;20048;-72
2023/10/14 05:03:12;;;;;;;;;;;11.00;99.90;;;;;;5059158;28;20047;-72
2023/10/14 05:05:43;;;;;;;16.02;2.42;;;11.00;99.90;;;;;;5075035;28;19920;-72
2023/10/14 05:08:15;;;;;;;14.05;2.08;;;11.00;99.90;;;;;;5075025;28;20452;-71
2023/10/14 05:10:44;;;;;;;16.23;2.70;;;11.00;99.90;;;;;;5075397;28;20052;-71
2023/10/14 05:13:12;;;;;;;12.73;2.35;;;11.00;99.90;;;;;;5074848;28;20126;-71
2023/10/14 05:15:45;;;;;;;9.73;1.70;;;11.00;99.90;;;;;;5075090;28;20048;-71
2023/10/14 05:18:17;;;;;;;13.60;2.22;;;11.00;99.90;;;;;;5076009;28;20450;-71
2023/10/14 05:20:56;;;;;;;11.50;2.17;;;10.90;99.90;;;;;;5074874;28;20086;-71
2023/10/14 05:23:30;;;;;;;21.70;2.60;;;10.90;99.90;;;;;;5074768;28;20032;-71
2023/10/14 05:25:57;;;;;;;16.08;2.38;;;10.90;99.90;;;;;;5074657;28;20444;-71
2023/10/14 05:28:29;;;;;;;13.32;2.55;;;10.90;99.90;;;;;;5074953;28;20044;-71
2023/10/14 05:30:57;;;;;;;12.20;1.95;;;10.90;99.90;;;;;;5074987;28;20052;-71
2023/10/14 05:33:24;;;;;;;14.95;2.70;;;10.90;99.90;;;;;;5074682;28;20103;-72
2023/10/14 05:35:49;;;;;;;12.70;2.13;;;10.90;99.90;;;;;;5074719;28;20076;-72
2023/10/14 05:38:17;;;;;;;13.75;2.13;;;10.80;99.90;;;;;;5074490;28;20044;-72
2023/10/14 05:40:43;;;;;;;18.42;2.47;;;10.80;99.90;;;;;;5074542;28;20051;-72
2023/10/14 05:43:09;;;;;;;15.10;2.55;;;10.80;99.90;;;;;;5074149;28;20044;-72
2023/10/14 05:45:38;;;;;;;15.25;2.25;;;10.80;99.90;;;;;;5073918;28;20040;-72
2023/10/14 05:48:05;;;;;;;18.58;2.85;;;10.80;99.90;;;;;;5074609;28;20071;-72
2023/10/14 05:50:31;;;;;;;19.70;3.08;;;10.80;99.90;;;;;;5074605;28;20063;-72
2023/10/14 05:52:59;;;;;;;14.82;2.30;;;10.80;99.90;;;;;;5074116;28;20048;-72
2023/10/14 05:55:25;;;;;;;15.73;2.80;;;10.80;99.90;;;;;;5074368;28;20485;-72
2023/10/14 05:57:51;;;;;;;9.15;2.00;;;10.70;99.90;;;;;;5074154;28;20040;-72
2023/10/14 06:00:23;;;;;;;11.43;2.20;;;10.80;99.90;;;;;;5074098;28;20045;-72
2023/10/14 06:02:57;;;;;;;17.95;2.50;;;10.70;99.90;;;;;;5074051;28;20493;-72
2023/10/14 06:05:29;;;;;;;16.63;2.63;;;10.80;99.90;;;;;;5074131;28;20028;-72
2023/10/14 06:08:11;;;;;;;15.52;2.97;;;10.70;99.90;;;;;;5074300;28;20048;-72
2023/10/14 06:10:37;;;;;;;15.93;2.85;;;10.70;99.90;;;;;;5073959;28;20079;-72
2023/10/14 06:13:05;;;;;;;16.33;2.45;;;10.70;99.90;;;;;;5074005;28;20076;-72
2023/10/14 06:15:36;;;;;;;19.15;2.63;;;10.70;99.90;;;;;;5073986;28;20556;-72
2023/10/14 06:18:04;;;;;;;17.90;2.80;;;10.80;99.90;;;;;;5056922;28;20040;-72
2023/10/14 06:20:32;;;;;;;13.73;2.35;;;10.80;99.90;;;;;;5073760;28;20405;-72
2023/10/14 06:22:59;;;;;;;15.57;2.75;;;10.70;99.90;;;;;;5073699;28;20036;-72
2023/10/14 06:25:29;;;;;;;14.55;2.95;;;10.70;99.90;;;;;;5073604;28;20086;-72
2023/10/14 06:27:54;;;;;;;16.17;2.50;;;10.80;99.90;;;;;;5056974;28;20055;-72
2023/10/14 06:30:20;;;;;;;15.85;3.10;;;10.80;99.90;;;;;;5073541;28;20123;-72
2023/10/14 06:32:58;;;;;;;12.88;2.42;;;10.80;99.90;;;;;;5073445;28;20044;-72
2023/10/14 06:35:26;;;;;;;14.20;3.00;;;10.80;99.90;;;;;;5056763;28;20041;-72
2023/10/14 06:37:53;;;;;;;14.93;3.08;;;10.80;99.90;;;;;;5073393;28;20114;-72
2023/10/14 06:40:19;;;;;;;11.00;1.73;;;10.80;99.90;;;;;;5073370;28;20044;-72
2023/10/14 06:42:53;;;;;;;17.13;2.63;;;10.80;99.90;;;;;;5074818;28;20043;-72
2023/10/14 06:45:21;;;;;;;14.35;2.10;;;10.80;99.90;;;;;;5073199;28;20128;-72
2023/10/14 06:47:50;;;;;;;14.63;2.88;;;10.80;99.90;;;;;;5073154;28;20410;-72
2023/10/14 06:50:25;;;;;;;15.25;2.85;;;10.80;99.90;;;;;;5073386;28;20501;-72
2023/10/14 06:53:01;;;;;;;20.08;3.25;;;10.80;99.90;;;;;;5073381;28;20040;-72
2023/10/14 06:55:28;;;;;;;12.60;2.20;;;10.80;99.90;;;;;;5072405;28;20095;-72
2023/10/14 06:57:55;;;;;;;15.38;2.70;;;10.80;99.90;;;;;;5056386;28;20032;-72
2023/10/14 07:00:29;;;;;;;15.15;2.60;;;10.80;99.90;;;;;;5073106;28;20041;-72
2023/10/14 07:02:57;;;;;;;14.75;2.53;;;10.90;99.90;;;;;;5073235;28;20044;-73
2023/10/14 07:05:31;;;;;;;22.33;3.38;;;10.90;99.90;;;;;;5072870;28;20041;-73
2023/10/14 07:07:57;;;;;;;11.43;2.20;;;10.90;99.90;;;;;;5072835;28;20127;-73
2023/10/14 07:10:27;;;;;;;17.58;3.40;;;10.90;99.90;;;;;;5072994;28;20131;-72
2023/10/14 07:13:00;;;;;;;19.83;2.97;;;11.00;99.90;;;;;;5072896;28;20066;-72
2023/10/14 07:15:31;;;;;;;;;;;11.00;99.90;;;;;;5073034;28;20036;-72
2023/10/14 07:17:58;;;;;;;14.98;2.33;;;11.00;99.90;;;;;;5072668;28;19972;-72
2023/10/14 07:20:25;;;;;;;18.15;2.83;;;11.00;99.90;;;;;;5072555;28;20072;-72
2023/10/14 07:22:51;;;;;;;19.73;2.65;;;11.10;99.90;;;;;;5072479;28;20048;-72
2023/10/14 07:25:23;;;;;;;13.23;2.70;;;11.10;99.90;;;;;;5072429;28;20040;-72
2023/10/14 07:27:51;;;;;;;16.48;3.38;;;11.20;99.90;;;;;;5055845;28;20048;-72
2023/10/14 07:30:18;;;;;;;13.98;2.70;;;11.20;99.90;;;;;;5072386;28;20048;-72
2023/10/14 07:32:44;;;;;;;14.15;2.97;;;11.20;99.90;;;;;;5072277;28;20408;-72
2023/10/14 07:35:15;;;;;;;16.65;2.78;;;11.30;99.90;;;;;;5072219;28;20047;-72
2023/10/14 07:37:43;;;;;;;16.30;3.00;;;11.30;99.90;;;;;;5072488;28;20040;-72
2023/10/14 07:42:59;;;;;;;17.63;2.95;;;11.40;99.90;;;;;;5072268;28;20048;-72
2023/10/14 07:45:28;;;;;;;13.73;2.30;;;11.50;99.90;;;;;;5072155;28;20060;-72
2023/10/14 07:47:56;;;;;;;14.05;2.67;;;11.50;99.90;;;;;;5072134;28;20040;-72
2023/10/14 07:50:22;;;;;;;17.83;2.50;;;11.50;99.90;;;;;;5072108;28;20086;-72
2023/10/14 07:52:48;;;;;;;16.55;2.80;;;11.60;99.90;;;;;;5071950;28;20051;-72
2023/10/14 07:55:22;;;;;;;13.93;2.20;;;11.70;99.90;;;;;;5071966;28;20036;-72
2023/10/14 07:57:48;;;;;;;16.02;2.55;;;11.70;99.90;;;;;;5072105;28;20044;-72
2023/10/14 08:00:15;;;;;;;13.15;2.83;;;11.80;99.90;;;;;;5071980;28;20486;-72
2023/10/14 08:02:41;;;;;;;14.82;2.45;;;11.80;99.90;;;;;;5072000;28;20075;-72
2023/10/14 08:05:08;;;;;;;16.85;2.70;;;11.90;99.90;;;;;;5071824;28;20040;-72
2023/10/14 08:07:40;;;;;;;13.90;2.78;;;12.00;99.90;;;;;;5071615;28;20036;-72
2023/10/14 08:10:16;;;;;;;23.95;2.45;;;12.00;99.90;;;;;;5072148;28;20040;-72
2023/10/14 08:12:44;;;;;;;14.60;3.03;;;12.10;99.90;;;;;;5071835;28;20044;-72
2023/10/14 08:15:09;;;;;;;16.95;2.55;;;12.10;99.90;;;;;;5071810;28;20516;-72
2023/10/14 08:17:35;;;;;;;16.27;2.90;;;12.20;99.90;;;;;;5071977;28;20028;-72
2023/10/14 08:20:00;;;;;;;11.40;2.45;;;12.30;99.90;;;;;;5055054;28;20447;-72
2023/10/14 08:22:26;;;;;;;13.48;2.55;;;12.40;99.90;;;;;;5071777;28;20115;-72
2023/10/14 08:24:52;;;;;;;15.90;2.20;;;12.40;99.90;;;;;;5071666;28;20047;-72
2023/10/14 08:27:17;;;;;;;13.15;2.13;;;12.60;99.90;;;;;;5071994;28;20077;-72
2023/10/14 08:29:43;;;;;;;14.90;2.67;;;13.30;99.90;;;;;;5071675;28;20512;-72
2023/10/14 08:32:09;;;;;;;14.50;2.47;;;14.50;99.90;;;;;;5071976;28;20044;-72
2023/10/14 08:34:36;;;;;;;13.07;2.22;;;15.80;99.90;;;;;;5071609;28;20049;-72
2023/10/14 08:37:02;;;;;;;15.07;2.72;;;16.90;99.90;;;;;;5071527;28;20055;-72
2023/10/14 08:39:31;;;;;;;14.57;2.22;;;17.70;99.90;;;;;;5071859;28;20032;-72
2023/10/14 08:41:58;;;;;;;13.68;2.75;;;18.40;98.60;;;;;;5071580;28;20040;-72
2023/10/14 08:44:31;;;;;;;10.20;2.40;;;19.00;96.20;;;;;;5071543;28;20049;-72
2023/10/14 08:46:57;;;;;;;12.95;2.53;;;19.70;95.20;;;;;;5071515;28;20044;-72
2023/10/14 08:49:27;;;;;;;12.95;2.33;;;20.30;92.30;;;;;;5071489;28;20508;-72
2023/10/14 08:51:53;;;;;;;11.80;2.70;;;20.70;89.30;;;;;;5071480;28;20090;-72
2023/10/14 08:54:21;;;;;;;9.45;1.75;;;20.90;86.50;;;;;;5071471;28;20181;-72
2023/10/14 08:56:48;;;;;;;11.70;2.80;;;21.00;84.10;;;;;;5071373;28;20516;-72
2023/10/14 08:59:14;;;;;;;11.25;2.13;;;21.10;81.20;;;;;;5054801;28;20037;-73
2023/10/14 09:01:40;;;;;;;11.32;2.50;;;21.30;79.30;;;;;;5071915;28;20033;-73
2023/10/14 09:04:08;;;;;;;11.63;2.25;;;21.50;79.40;;;;;;5071369;28;20046;-73
2023/10/14 09:06:34;;;;;;;7.15;1.80;;;21.60;79.00;;;;;;5071255;28;20456;-73
2023/10/14 09:09:00;;;;;;;12.00;2.40;;;21.40;77.20;;;;;;5071343;28;20123;-73
2023/10/14 09:11:33;;;;;;;9.52;1.90;;;21.40;78.10;;;;;;5054880;28;20047;-73
2023/10/14 09:14:04;;;;;;;12.88;2.30;;;21.50;75.20;;;;;;5071189;28;20481;-73
2023/10/14 09:16:34;;;;;;;12.05;2.20;;;21.80;73.70;;;;;;5071071;28;20044;-73
2023/10/14 09:19:01;;;;;;;14.40;3.22;;;21.70;75.20;;;;;;5072034;28;20090;-73
2023/10/14 09:21:28;;;;;;;14.18;2.53;;;21.90;74.00;;;;;;5074854;28;20045;-73
2023/10/14 09:23:54;;;;;;;6.25;1.75;;;22.20;73.50;;;;;;5074845;28;20425;-73
2023/10/14 09:26:21;;;;;;;8.15;1.83;;;22.50;71.00;;;;;;5058071;28;20036;-72
2023/10/14 09:28:48;;;;;;;11.95;2.40;;;22.90;69.30;;;;;;5074850;28;20094;-72
2023/10/14 09:31:14;;;;;;;10.27;1.73;;;22.70;66.60;;;;;;5076007;28;20492;-72
2023/10/14 09:33:41;;;;;;;8.95;1.95;;;22.20;66.80;;;;;;5074623;28;20515;-72
2023/10/14 09:36:14;;;;;;;10.32;1.95;;;22.20;65.80;;;;;;5074817;28;20032;-73
2023/10/14 09:38:40;;;;;;;9.82;2.05;;;22.40;64.50;;;;;;5074818;28;20036;-73
2023/10/14 09:41:10;;;;;;;7.75;1.80;;;22.40;61.80;;;;;;5074502;28;20045;-73
2023/10/14 09:43:42;;;;;;;10.85;1.52;;;22.60;62.20;;;;;;5074447;28;20050;-73
2023/10/14 09:46:12;;;;;;;4.15;1.05;;;23.00;61.90;;;;;;5057716;28;20535;-73
2023/10/14 09:48:39;;;;;;;11.38;2.10;;;23.10;60.60;;;;;;5074570;28;20040;-73
2023/10/14 09:51:07;;;;;;;8.77;1.85;;;23.30;60.00;;;;;;5074650;28;20048;-73
2023/10/14 09:53:35;;;;;;;7.43;1.60;;;23.30;58.90;;;;;;5074340;28;20170;-73
2023/10/14 09:56:06;;;;;;;10.40;2.08;;;23.40;59.10;;;;;;5074212;28;20470;-72
2023/10/14 09:58:37;;;;;;;8.43;1.83;;;23.50;58.80;;;;;;5074431;28;20059;-72
2023/10/14 10:01:04;;;;;;;8.93;1.70;;;23.50;58.00;;;;;;5074447;28;20045;-73
2023/10/14 10:03:37;;;;;;;7.97;1.50;;;23.40;57.70;;;;;;5074411;28;20037;-73
2023/10/14 10:06:13;;;;;;;8.98;2.05;;;23.40;57.90;;;;;;5074046;28;20055;-73
2023/10/14 10:09:03;;;;;;;7.25;1.77;;;23.30;57.80;;;;;;5074037;28;20051;-73
2023/10/14 10:11:30;;;;;;;8.45;1.45;;;23.20;55.50;;;;;;5074024;28;20131;-73
2023/10/14 10:14:01;;;;;;;11.00;1.52;;;22.80;56.90;;;;;;5073905;28;20493;-73
2023/10/14 10:16:31;;;;;;;13.52;2.17;;;21.60;58.20;;;;;;5073846;28;20036;-73
2023/10/14 10:18:59;;;;;;;12.40;2.17;;;21.30;60.80;;;;;;5073978;28;20037;-72
2023/10/14 10:21:34;;;;;;;7.60;1.60;;;21.90;60.40;;;;;;5074044;28;20134;-73
2023/10/14 10:24:23;;;;;;;6.88;1.77;;;22.60;59.50;;;;;;5074092;28;20048;-73
2023/10/14 10:27:04;;;;;;;9.75;1.65;;;23.00;58.50;;;;;;5070156;28;20055;-73
2023/10/14 10:29:42;;;;;;;10.27;1.88;;;23.50;58.50;;;;;;5074046;28;20059;-73
2023/10/14 10:32:09;;;;;;;8.25;1.40;;;23.50;58.30;;;;;;5073906;28;20155;-73
2023/10/14 10:35:06;;;;;;;9.95;1.90;;;23.50;58.40;;;;;;5073424;28;20052;-73
2023/10/14 10:37:40;;;;;;;9.23;1.98;;;23.40;57.70;;;;;;5073695;28;20041;-72
2023/10/14 10:40:11;;;;;;;9.27;1.63;;;23.60;59.90;;;;;;5057380;28;20378;-73
2023/10/14 10:42:41;;;;;;;8.52;1.75;;;24.00;59.10;;;;;;5073409;28;20044;-73
2023/10/14 10:45:31;;;;;;;12.20;1.55;;;23.90;59.00;;;;;;5073288;28;20049;-73
2023/10/14 10:47:59;;;;;;;6.20;1.30;;;22.50;57.90;;;;;;5073519;28;20119;-73
2023/10/14 10:50:35;;;;;;;5.65;1.30;;;20.60;62.10;;;;;;5073733;28;20076;-73
2023/10/14 10:53:07;;;;;;;6.65;1.10;;;19.00;64.90;;;;;;5073826;28;20037;-73
2023/10/14 10:55:37;;;;;;;6.88;1.17;;;17.80;69.90;;;;;;5073343;28;20437;-73
2023/10/14 10:58:03;;;;;;;7.40;1.20;;;16.80;75.20;;;;;;5073455;28;20085;-73
2023/10/14 11:00:30;;;;;;;6.35;1.00;;;16.20;83.30;;;;;;5073221;28;20127;-74
2023/10/14 11:02:56;;;;;;;7.25;1.13;;;15.80;90.40;;;;;;5056577;28;20040;-74
2023/10/14 11:05:24;;;;;;;7.68;1.17;;;16.00;92.10;;;;;;5073104;28;20055;-74
2023/10/14 11:07:52;;;;;;;8.25;1.20;;;17.30;91.40;;;;;;5073138;28;20036;-74
2023/10/14 11:10:30;;;;;;;8.10;1.40;;;18.60;84.90;;;;;;5072835;28;20280;-74
2023/10/14 11:13:00;;;;;;;6.18;1.50;;;19.70;78.30;;;;;;5072882;28;20036;-74
2023/10/14 11:15:27;;;;;;;8.98;1.50;;;20.50;72.80;;;;;;5072545;28;20473;-74
2023/10/14 11:17:59;;;;;;;8.70;1.42;;;21.00;70.00;;;;;;5056198;28;20032;-74
2023/10/14 11:20:34;;;;;;;6.10;1.65;;;21.50;69.40;;;;;;5072588;28;20036;-74
2023/10/14 11:23:03;;;;;;;7.40;1.60;;;21.90;68.20;;;;;;5072634;28;20123;-74
2023/10/14 11:25:30;;;;;;;7.55;1.90;;;22.10;66.60;;;;;;5055800;28;20033;-75
2023/10/14 11:27:57;;;;;;;9.57;1.63;;;22.30;65.20;;;;;;5072465;28;20487;-75
2023/10/14 11:30:27;;;;;;;4.28;1.00;;;22.10;66.80;;;;;;5072663;28;20048;-75
2023/10/14 11:32:56;;;;;;;5.00;0.95;;;21.50;66.80;;;;;;5072356;28;20048;-75
2023/10/14 11:35:22;;;;;;;6.22;1.08;;;20.30;66.20;;;;;;5055691;28;20082;-72
2023/10/14 11:37:52;;;;;;;5.55;1.17;;;19.20;69.40;;;;;;5072271;28;20036;-72
2023/10/14 11:40:19;;;;;;;7.43;1.75;;;18.70;74.10;;;;;;5072511;28;20113;-72
2023/10/14 11:42:45;;;;;;;8.57;1.58;;;18.30;76.40;;;;;;5071736;28;20040;-73
2023/10/14 11:45:10;;;;;;;7.95;1.40;;;17.80;79.30;;;;;;5072487;28;20033;-73
2023/10/14 11:47:44;;;;;;;10.88;1.80;;;17.30;81.10;;;;;;5072150;28;20489;-73
2023/10/14 11:50:13;;;;;;;10.02;1.50;;;16.90;83.20;;;;;;5072117;28;20056;-73
2023/10/14 11:52:43;;;;;;;8.60;1.88;;;16.70;87.90;;;;;;5071993;28;20119;-73
2023/10/14 11:55:15;;;;;;;4.22;0.80;;;17.20;86.50;;;;;;5071959;28;20032;-72
2023/10/14 11:57:49;;;;;;;5.03;1.10;;;17.30;80.40;;;;;;5072029;28;20111;-72
2023/10/14 12:00:20;;;;;;;3.25;1.00;;;17.70;80.50;;;;;;5072056;28;20033;-72
2023/10/14 12:02:52;;;;;;;4.63;1.20;;;17.90;80.50;;;;;;5071988;28;20036;-74
2023/10/14 12:05:19;;;;;;;5.40;1.10;;;18.40;76.80;;;;;;5055193;28;20552;-74
2023/10/14 12:07:47;;;;;;;6.78;1.20;;;18.20;75.50;;;;;;5055153;28;20508;-74
2023/10/14 12:10:13;;;;;;;5.43;1.40;;;17.90;75.90;;;;;;5071849;28;20445;-74
2023/10/14 12:12:39;;;;;;;7.13;1.50;;;17.90;76.50;;;;;;5072024;28;20493;-75
2023/10/14 12:15:09;;;;;;;8.65;1.30;;;18.10;76.30;;;;;;5071793;28;20048;-73
2023/10/14 12:17:35;;;;;;;8.60;1.63;;;18.50;77.50;;;;;;5071678;28;20111;-73
2023/10/14 12:20:10;;;;;;;6.05;1.23;;;18.80;78.50;;;;;;5055076;28;20485;-73
2023/10/14 12:22:36;;;;;;;5.43;1.15;;;19.00;76.00;;;;;;5071789;28;20090;-73
2023/10/14 12:25:02;;;;;;;9.57;1.80;;;19.20;77.10;;;;;;5071673;28;20119;-73
2023/10/14 12:27:28;;;;;;;10.73;2.28;;;19.00;80.10;;;;;;5071684;28;20052;-73
2023/10/14 12:29:54;;;;;;;10.07;2.30;;;19.10;86.20;;;;;;5054976;28;20055;-73
2023/10/14 12:32:20;;;;;;;9.50;2.50;;;19.00;85.10;;;;;;5071986;28;20101;-72
2023/10/14 12:34:48;;;;;;;10.38;2.03;;;19.10;86.30;;;;;;5054857;28;20447;-72
2023/10/14 12:37:21;;;;;;;9.57;2.10;;;19.20;84.30;;;;;;5054941;28;20086;-72
2023/10/14 12:42:47;;;;;;;12.73;2.30;;;19.40;82.30;;;;;;5054042;28;20044;-72
2023/10/14 12:45:15;;;;;;;9.77;2.13;;;19.60;82.50;;;;;;5054195;28;20071;-72
2023/10/14 12:47:46;;;;;;;9.43;2.17;;;19.40;81.30;;;;;;5054171;28;20098;-72
2023/10/14 12:50:19;;;;;;;13.00;2.40;;;19.30;81.70;;;;;;5037531;28;20032;-72
2023/10/14 12:52:59;;;;;;;13.52;2.45;;;19.30;80.40;;;;;;5053961;28;20115;-72
2023/10/14 12:55:26;;;;;;;11.65;2.40;;;19.10;77.00;;;;;;5057076;28;20563;-72
2023/10/14 12:57:55;;;;;;;10.38;2.50;;;18.60;76.80;;;;;;5057736;28;20542;-73
2023/10/14 13:00:29;;;;;;;13.20;2.78;;;18.50;79.10;;;;;;5057684;28;20041;-72
2023/10/14 13:02:58;;;;;;;10.30;2.28;;;18.20;80.10;;;;;;5058015;28;20400;-72
2023/10/14 13:05:25;;;;;;;14.05;2.20;;;18.30;83.00;;;;;;5057886;28;20056;-72
2023/10/14 13:07:52;;;;;;;8.75;2.00;;;18.40;81.80;;;;;;5057821;28;20113;-72
2023/10/14 13:10:19;;;;;;;10.05;2.20;;;18.70;78.70;;;;;;5057513;28;20586;-72
2023/10/14 13:12:54;;;;;;;7.85;2.50;;;18.80;78.60;;;;;;5057880;28;20044;-72
2023/10/14 13:15:34;;;;;;;10.55;2.30;;;18.80;76.60;;;;;;5057253;28;20040;-72
2023/10/14 13:18:04;;;;;;;8.82;1.98;;;18.50;74.40;;;;;;5061666;28;20053;-72
2023/10/14 13:20:35;;;;;;;9.13;2.33;;;17.80;71.60;;;;;;5074940;28;20043;-72
2023/10/14 13:23:07;;;;;;;11.23;2.00;;;17.30;71.50;;;;;;5074906;28;20123;-72
2023/10/14 13:25:36;;;;;;;7.90;2.03;;;16.90;72.40;;;;;;5075045;28;20124;-72
2023/10/14 13:28:11;;;;;;;13.02;2.25;;;16.60;71.90;;;;;;5074813;28;20062;-72
2023/10/14 13:30:47;;;;;;;9.07;2.17;;;16.40;72.90;;;;;;5075019;28;20044;-72
2023/10/14 13:33:14;;;;;;;9.82;2.17;;;16.40;73.30;;;;;;5074577;28;20456;-72
2023/10/14 13:35:42;;;;;;;9.05;2.03;;;16.70;74.00;;;;;;5074845;28;20147;-72
2023/10/14 13:38:10;;;;;;;12.55;3.00;;;17.00;74.60;;;;;;5074623;28;20115;-72